Sibbe, Netherlands
Current Conditions -  °F | °C
As of 5:25 PM on Tuesday 21 Oct 2014 (Local Time) from EHBK Reporting Station
Broken Clouds Broken Clouds  
Wind Chill: 52°   Ceiling: 2500
Heat Index: 52°   Visibility: 6mi
Dew Point: 46°   Wind: 14mph
Humidity: 82%   Direction: 280°W
Pressure: 29.62"   Gusts: 25mph
Location:  50.84°N, 5.83°E
Report Text: EHBK 211525Z AUTO 28012G22KT 220V340 9999 FEW015CB BKN025BKN030 11/08 Q1003 TEMPO 29020G35KT 6000 SHRA
Loading
Personal Weather Stations






























Interactive Weather Map
Tropical Storm Tracking
New forecast layout! Learn more

10-Day Weather Forecast

Advertisements
Track Severe Weather on mobile